sensor_id;sensor_type;location;lat;lon;timestamp;P1;durP1;ratioP1;P2;durP2;ratioP2
49153;SDS011;49455;52.252;9.124;2023-03-23T00:00:17;7.25;;;3.13;;
49153;SDS011;49455;52.252;9.124;2023-03-23T00:05:18;7.22;;;3.75;;
49153;SDS011;49455;52.252;9.124;2023-03-23T00:10:18;6.50;;;4.03;;
49153;SDS011;49455;52.252;9.124;2023-03-23T00:15:19;6.00;;;3.95;;
49153;SDS011;49455;52.252;9.124;2023-03-23T00:20:19;9.27;;;4.55;;
49153;SDS011;49455;52.252;9.124;2023-03-23T00:25:19;8.27;;;3.90;;
49153;SDS011;49455;52.252;9.124;2023-03-23T00:30:20;8.27;;;4.38;;
49153;SDS011;49455;52.252;9.124;2023-03-23T00:35:20;8.85;;;4.13;;
49153;SDS011;49455;52.252;9.124;2023-03-23T00:40:21;7.47;;;3.67;;
49153;SDS011;49455;52.252;9.124;2023-03-23T00:45:21;6.55;;;4.43;;
49153;SDS011;49455;52.252;9.124;2023-03-23T00:50:21;7.00;;;4.57;;
49153;SDS011;49455;52.252;9.124;2023-03-23T00:55:22;10.57;;;5.25;;
49153;SDS011;49455;52.252;9.124;2023-03-23T01:00:24;9.13;;;4.57;;
49153;SDS011;49455;52.252;9.124;2023-03-23T01:05:24;9.63;;;4.95;;
49153;SDS011;49455;52.252;9.124;2023-03-23T01:10:25;9.43;;;4.60;;
49153;SDS011;49455;52.252;9.124;2023-03-23T01:15:26;7.78;;;4.30;;
49153;SDS011;49455;52.252;9.124;2023-03-23T01:20:28;5.78;;;4.25;;
49153;SDS011;49455;52.252;9.124;2023-03-23T01:25:29;6.05;;;4.03;;
49153;SDS011;49455;52.252;9.124;2023-03-23T01:30:32;10.35;;;4.50;;
49153;SDS011;49455;52.252;9.124;2023-03-23T01:35:32;5.10;;;3.83;;
49153;SDS011;49455;52.252;9.124;2023-03-23T01:40:32;10.50;;;4.63;;
49153;SDS011;49455;52.252;9.124;2023-03-23T01:45:36;7.97;;;3.92;;
49153;SDS011;49455;52.252;9.124;2023-03-23T01:50:39;6.97;;;4.22;;
49153;SDS011;49455;52.252;9.124;2023-03-23T01:55:54;7.20;;;4.10;;
49153;SDS011;49455;52.252;9.124;2023-03-23T02:00:57;9.02;;;4.03;;
49153;SDS011;49455;52.252;9.124;2023-03-23T02:05:59;6.78;;;3.95;;
49153;SDS011;49455;52.252;9.124;2023-03-23T02:11:14;6.18;;;3.63;;
49153;SDS011;49455;52.252;9.124;2023-03-23T02:37:03;5.03;;;3.07;;
49153;SDS011;49455;52.252;9.124;2023-03-23T02:42:20;4.72;;;3.35;;
49153;SDS011;49455;52.252;9.124;2023-03-23T02:47:25;8.07;;;3.40;;
49153;SDS011;49455;52.252;9.124;2023-03-23T02:52:29;5.55;;;3.40;;
49153;SDS011;49455;52.252;9.124;2023-03-23T02:57:31;5.72;;;3.60;;
49153;SDS011;49455;52.252;9.124;2023-03-23T03:02:35;5.78;;;3.60;;
49153;SDS011;49455;52.252;9.124;2023-03-23T03:07:49;5.07;;;3.38;;
49153;SDS011;49455;52.252;9.124;2023-03-23T03:18:46;6.55;;;3.72;;
49153;SDS011;49455;52.252;9.124;2023-03-23T03:23:48;5.70;;;3.42;;
49153;SDS011;49455;52.252;9.124;2023-03-23T03:28:50;5.72;;;2.55;;
49153;SDS011;49455;52.252;9.124;2023-03-23T03:33:53;4.13;;;2.80;;
49153;SDS011;49455;52.252;9.124;2023-03-23T03:38:54;6.15;;;2.78;;
49153;SDS011;49455;52.252;9.124;2023-03-23T03:43:54;4.13;;;2.90;;
49153;SDS011;49455;52.252;9.124;2023-03-23T03:48:55;6.00;;;3.00;;
49153;SDS011;49455;52.252;9.124;2023-03-23T03:53:56;4.23;;;2.60;;
49153;SDS011;49455;52.252;9.124;2023-03-23T03:58:56;3.92;;;2.78;;
49153;SDS011;49455;52.252;9.124;2023-03-23T04:04:20;5.45;;;2.65;;
49153;SDS011;49455;52.252;9.124;2023-03-23T04:09:21;3.30;;;2.42;;
49153;SDS011;49455;52.252;9.124;2023-03-23T04:14:22;3.45;;;2.53;;
49153;SDS011;49455;52.252;9.124;2023-03-23T04:19:23;4.38;;;2.40;;
49153;SDS011;49455;52.252;9.124;2023-03-23T04:24:24;2.78;;;2.50;;
49153;SDS011;49455;52.252;9.124;2023-03-23T04:29:25;4.13;;;2.30;;
49153;SDS011;49455;52.252;9.124;2023-03-23T04:34:46;3.70;;;2.40;;
49153;SDS011;49455;52.252;9.124;2023-03-23T04:39:46;3.70;;;2.17;;
49153;SDS011;49455;52.252;9.124;2023-03-23T04:49:49;3.15;;;2.53;;
49153;SDS011;49455;52.252;9.124;2023-03-23T04:54:57;3.20;;;2.08;;
49153;SDS011;49455;52.252;9.124;2023-03-23T04:59:59;4.50;;;2.38;;
49153;SDS011;49455;52.252;9.124;2023-03-23T05:05:12;4.47;;;2.50;;
49153;SDS011;49455;52.252;9.124;2023-03-23T05:10:14;4.18;;;1.90;;
49153;SDS011;49455;52.252;9.124;2023-03-23T05:15:16;4.22;;;2.13;;
49153;SDS011;49455;52.252;9.124;2023-03-23T05:20:18;2.65;;;2.00;;
49153;SDS011;49455;52.252;9.124;2023-03-23T05:25:21;4.00;;;2.30;;
49153;SDS011;49455;52.252;9.124;2023-03-23T05:30:28;3.53;;;2.00;;
49153;SDS011;49455;52.252;9.124;2023-03-23T05:35:30;3.13;;;1.80;;
49153;SDS011;49455;52.252;9.124;2023-03-23T05:40:31;3.13;;;2.03;;
49153;SDS011;49455;52.252;9.124;2023-03-23T05:45:37;4.38;;;1.95;;
49153;SDS011;49455;52.252;9.124;2023-03-23T05:50:38;1.85;;;1.60;;
49153;SDS011;49455;52.252;9.124;2023-03-23T05:55:38;3.00;;;1.50;;
49153;SDS011;49455;52.252;9.124;2023-03-23T06:00:50;4.32;;;1.60;;
49153;SDS011;49455;52.252;9.124;2023-03-23T06:05:56;2.85;;;1.90;;
49153;SDS011;49455;52.252;9.124;2023-03-23T06:11:04;4.50;;;1.67;;
49153;SDS011;49455;52.252;9.124;2023-03-23T06:16:08;2.40;;;1.75;;
49153;SDS011;49455;52.252;9.124;2023-03-23T06:21:26;4.72;;;2.30;;
49153;SDS011;49455;52.252;9.124;2023-03-23T06:26:30;4.53;;;2.03;;
49153;SDS011;49455;52.252;9.124;2023-03-23T06:31:46;4.18;;;2.10;;
49153;SDS011;49455;52.252;9.124;2023-03-23T06:36:49;3.25;;;2.10;;
49153;SDS011;49455;52.252;9.124;2023-03-23T06:41:54;4.68;;;2.08;;
49153;SDS011;49455;52.252;9.124;2023-03-23T06:47:02;4.05;;;2.33;;
49153;SDS011;49455;52.252;9.124;2023-03-23T06:52:08;3.55;;;2.13;;
49153;SDS011;49455;52.252;9.124;2023-03-23T06:57:09;5.90;;;2.28;;
49153;SDS011;49455;52.252;9.124;2023-03-23T07:02:11;4.25;;;2.88;;
49153;SDS011;49455;52.252;9.124;2023-03-23T07:07:12;3.15;;;2.10;;
49153;SDS011;49455;52.252;9.124;2023-03-23T07:12:21;5.18;;;2.60;;
49153;SDS011;49455;52.252;9.124;2023-03-23T07:17:24;4.07;;;3.00;;
49153;SDS011;49455;52.252;9.124;2023-03-23T07:22:43;4.95;;;3.00;;
49153;SDS011;49455;52.252;9.124;2023-03-23T07:27:57;4.45;;;2.28;;
49153;SDS011;49455;52.252;9.124;2023-03-23T07:32:58;5.00;;;2.47;;
49153;SDS011;49455;52.252;9.124;2023-03-23T07:37:59;4.05;;;2.17;;
49153;SDS011;49455;52.252;9.124;2023-03-23T07:43:01;4.37;;;2.70;;
49153;SDS011;49455;52.252;9.124;2023-03-23T07:48:40;4.53;;;2.80;;
49153;SDS011;49455;52.252;9.124;2023-03-23T07:53:44;3.80;;;2.08;;
49153;SDS011;49455;52.252;9.124;2023-03-23T07:59:13;4.00;;;2.38;;
49153;SDS011;49455;52.252;9.124;2023-03-23T08:09:45;6.13;;;3.00;;
49153;SDS011;49455;52.252;9.124;2023-03-23T08:15:06;5.25;;;2.45;;
49153;SDS011;49455;52.252;9.124;2023-03-23T08:20:34;4.28;;;2.95;;
49153;SDS011;49455;52.252;9.124;2023-03-23T08:25:58;5.20;;;2.67;;
49153;SDS011;49455;52.252;9.124;2023-03-23T08:31:19;6.65;;;2.90;;
49153;SDS011;49455;52.252;9.124;2023-03-23T08:36:47;5.60;;;2.90;;
49153;SDS011;49455;52.252;9.124;2023-03-23T08:42:11;8.18;;;3.13;;
49153;SDS011;49455;52.252;9.124;2023-03-23T08:47:48;7.57;;;3.00;;
49153;SDS011;49455;52.252;9.124;2023-03-23T08:53:04;6.20;;;3.00;;
49153;SDS011;49455;52.252;9.124;2023-03-23T08:58:18;8.35;;;2.47;;
49153;SDS011;49455;52.252;9.124;2023-03-23T09:03:37;9.30;;;3.05;;
49153;SDS011;49455;52.252;9.124;2023-03-23T09:08:53;9.50;;;3.17;;
49153;SDS011;49455;52.252;9.124;2023-03-23T09:13:53;6.55;;;2.83;;
49153;SDS011;49455;52.252;9.124;2023-03-23T09:18:54;6.43;;;2.90;;
49153;SDS011;49455;52.252;9.124;2023-03-23T09:23:55;9.45;;;3.13;;
49153;SDS011;49455;52.252;9.124;2023-03-23T09:28:56;6.10;;;2.70;;
49153;SDS011;49455;52.252;9.124;2023-03-23T09:33:57;6.63;;;2.88;;
49153;SDS011;49455;52.252;9.124;2023-03-23T09:38:58;7.43;;;2.87;;
49153;SDS011;49455;52.252;9.124;2023-03-23T09:54:37;8.60;;;3.08;;
49153;SDS011;49455;52.252;9.124;2023-03-23T09:59:46;9.52;;;2.72;;
49153;SDS011;49455;52.252;9.124;2023-03-23T10:04:55;5.95;;;3.22;;
49153;SDS011;49455;52.252;9.124;2023-03-23T10:10:00;10.23;;;3.13;;
49153;SDS011;49455;52.252;9.124;2023-03-23T10:25:54;7.57;;;3.27;;
49153;SDS011;49455;52.252;9.124;2023-03-23T10:31:00;8.63;;;3.28;;
49153;SDS011;49455;52.252;9.124;2023-03-23T10:41:10;9.95;;;3.00;;
49153;SDS011;49455;52.252;9.124;2023-03-23T10:52:03;7.82;;;2.88;;
49153;SDS011;49455;52.252;9.124;2023-03-23T10:57:21;8.73;;;2.80;;
49153;SDS011;49455;52.252;9.124;2023-03-23T11:02:29;8.60;;;3.22;;
49153;SDS011;49455;52.252;9.124;2023-03-23T11:07:31;6.70;;;3.30;;
49153;SDS011;49455;52.252;9.124;2023-03-23T11:12:34;9.45;;;3.30;;
49153;SDS011;49455;52.252;9.124;2023-03-23T11:17:34;6.50;;;3.28;;
49153;SDS011;49455;52.252;9.124;2023-03-23T11:22:35;7.03;;;3.05;;
49153;SDS011;49455;52.252;9.124;2023-03-23T11:27:37;8.55;;;3.10;;
49153;SDS011;49455;52.252;9.124;2023-03-23T11:32:42;14.82;;;3.60;;
49153;SDS011;49455;52.252;9.124;2023-03-23T11:37:51;7.13;;;2.72;;
49153;SDS011;49455;52.252;9.124;2023-03-23T11:43:12;3.50;;;1.85;;
49153;SDS011;49455;52.252;9.124;2023-03-23T11:48:28;3.88;;;1.60;;
49153;SDS011;49455;52.252;9.124;2023-03-23T11:59:25;6.70;;;1.80;;
49153;SDS011;49455;52.252;9.124;2023-03-23T12:10:02;1.17;;;0.90;;
49153;SDS011;49455;52.252;9.124;2023-03-23T12:15:11;1.77;;;0.80;;
49153;SDS011;49455;52.252;9.124;2023-03-23T12:30:32;2.10;;;1.00;;
49153;SDS011;49455;52.252;9.124;2023-03-23T12:41:22;3.83;;;1.27;;
49153;SDS011;49455;52.252;9.124;2023-03-23T12:52:22;3.65;;;1.38;;
49153;SDS011;49455;52.252;9.124;2023-03-23T12:57:31;2.50;;;1.13;;
49153;SDS011;49455;52.252;9.124;2023-03-23T13:02:44;4.88;;;1.30;;
49153;SDS011;49455;52.252;9.124;2023-03-23T13:07:51;2.80;;;0.98;;
49153;SDS011;49455;52.252;9.124;2023-03-23T13:12:54;2.72;;;1.25;;
49153;SDS011;49455;52.252;9.124;2023-03-23T13:18:25;2.55;;;0.98;;
49153;SDS011;49455;52.252;9.124;2023-03-23T13:28:30;3.17;;;1.25;;
49153;SDS011;49455;52.252;9.124;2023-03-23T13:33:52;1.85;;;0.95;;
49153;SDS011;49455;52.252;9.124;2023-03-23T13:39:00;3.13;;;1.35;;
49153;SDS011;49455;52.252;9.124;2023-03-23T13:44:16;2.75;;;1.55;;
49153;SDS011;49455;52.252;9.124;2023-03-23T13:49:20;5.65;;;2.33;;
49153;SDS011;49455;52.252;9.124;2023-03-23T13:59:33;1.90;;;1.00;;
49153;SDS011;49455;52.252;9.124;2023-03-23T14:04:46;2.15;;;1.10;;
49153;SDS011;49455;52.252;9.124;2023-03-23T14:09:49;3.42;;;1.10;;
49153;SDS011;49455;52.252;9.124;2023-03-23T14:14:51;3.75;;;1.38;;
49153;SDS011;49455;52.252;9.124;2023-03-23T14:19:57;3.40;;;1.40;;
49153;SDS011;49455;52.252;9.124;2023-03-23T14:25:12;1.92;;;1.50;;
49153;SDS011;49455;52.252;9.124;2023-03-23T14:30:20;3.65;;;1.70;;
49153;SDS011;49455;52.252;9.124;2023-03-23T14:35:25;3.25;;;1.52;;
49153;SDS011;49455;52.252;9.124;2023-03-23T14:40:28;2.25;;;1.30;;
49153;SDS011;49455;52.252;9.124;2023-03-23T14:50:41;4.07;;;1.70;;
49153;SDS011;49455;52.252;9.124;2023-03-23T14:55:48;2.97;;;1.52;;
49153;SDS011;49455;52.252;9.124;2023-03-23T15:06:13;2.97;;;2.17;;
49153;SDS011;49455;52.252;9.124;2023-03-23T15:16:23;3.85;;;2.42;;
49153;SDS011;49455;52.252;9.124;2023-03-23T15:26:41;5.35;;;2.50;;
49153;SDS011;49455;52.252;9.124;2023-03-23T15:31:52;6.20;;;2.83;;
49153;SDS011;49455;52.252;9.124;2023-03-23T15:37:02;4.07;;;2.67;;
49153;SDS011;49455;52.252;9.124;2023-03-23T15:42:04;5.10;;;2.45;;
49153;SDS011;49455;52.252;9.124;2023-03-23T15:47:15;5.25;;;2.78;;
49153;SDS011;49455;52.252;9.124;2023-03-23T15:52:17;4.72;;;2.30;;
49153;SDS011;49455;52.252;9.124;2023-03-23T15:57:17;4.00;;;2.38;;
49153;SDS011;49455;52.252;9.124;2023-03-23T16:02:21;4.45;;;2.58;;
49153;SDS011;49455;52.252;9.124;2023-03-23T16:07:24;5.00;;;3.00;;
49153;SDS011;49455;52.252;9.124;2023-03-23T16:12:24;6.65;;;3.22;;
49153;SDS011;49455;52.252;9.124;2023-03-23T16:17:25;4.53;;;2.67;;
49153;SDS011;49455;52.252;9.124;2023-03-23T16:22:25;5.55;;;2.63;;
49153;SDS011;49455;52.252;9.124;2023-03-23T16:27:26;6.60;;;2.92;;
49153;SDS011;49455;52.252;9.124;2023-03-23T16:32:26;6.78;;;3.25;;
49153;SDS011;49455;52.252;9.124;2023-03-23T16:37:27;5.55;;;2.67;;
49153;SDS011;49455;52.252;9.124;2023-03-23T16:42:27;6.68;;;3.30;;
49153;SDS011;49455;52.252;9.124;2023-03-23T16:47:28;7.68;;;3.90;;
49153;SDS011;49455;52.252;9.124;2023-03-23T16:52:28;6.03;;;3.53;;
49153;SDS011;49455;52.252;9.124;2023-03-23T16:57:29;7.28;;;4.35;;
49153;SDS011;49455;52.252;9.124;2023-03-23T17:02:32;9.05;;;4.55;;
49153;SDS011;49455;52.252;9.124;2023-03-23T17:07:32;5.15;;;3.72;;
49153;SDS011;49455;52.252;9.124;2023-03-23T17:12:33;5.85;;;3.78;;
49153;SDS011;49455;52.252;9.124;2023-03-23T17:17:34;7.03;;;3.90;;
49153;SDS011;49455;52.252;9.124;2023-03-23T17:22:35;5.63;;;3.67;;
49153;SDS011;49455;52.252;9.124;2023-03-23T17:27:36;5.75;;;4.30;;
49153;SDS011;49455;52.252;9.124;2023-03-23T17:32:37;7.50;;;3.87;;
49153;SDS011;49455;52.252;9.124;2023-03-23T17:37:38;6.18;;;3.33;;
49153;SDS011;49455;52.252;9.124;2023-03-23T17:42:38;5.28;;;3.97;;
49153;SDS011;49455;52.252;9.124;2023-03-23T17:47:39;7.80;;;4.20;;
49153;SDS011;49455;52.252;9.124;2023-03-23T17:52:40;6.68;;;4.55;;
49153;SDS011;49455;52.252;9.124;2023-03-23T17:57:40;11.20;;;7.30;;
49153;SDS011;49455;52.252;9.124;2023-03-23T18:02:41;10.63;;;6.07;;
49153;SDS011;49455;52.252;9.124;2023-03-23T18:07:41;12.55;;;5.35;;
49153;SDS011;49455;52.252;9.124;2023-03-23T18:12:41;11.70;;;4.93;;
49153;SDS011;49455;52.252;9.124;2023-03-23T18:17:42;7.60;;;4.97;;
49153;SDS011;49455;52.252;9.124;2023-03-23T18:22:42;12.05;;;4.90;;
49153;SDS011;49455;52.252;9.124;2023-03-23T18:27:42;8.05;;;4.88;;
49153;SDS011;49455;52.252;9.124;2023-03-23T18:32:43;10.43;;;5.30;;
49153;SDS011;49455;52.252;9.124;2023-03-23T18:37:43;9.25;;;5.35;;
49153;SDS011;49455;52.252;9.124;2023-03-23T18:42:44;9.10;;;4.72;;
49153;SDS011;49455;52.252;9.124;2023-03-23T18:47:44;12.15;;;4.82;;
49153;SDS011;49455;52.252;9.124;2023-03-23T18:52:45;8.68;;;4.32;;
49153;SDS011;49455;52.252;9.124;2023-03-23T18:57:45;9.38;;;4.68;;
49153;SDS011;49455;52.252;9.124;2023-03-23T19:02:46;6.95;;;4.65;;
49153;SDS011;49455;52.252;9.124;2023-03-23T19:07:46;8.38;;;4.07;;
49153;SDS011;49455;52.252;9.124;2023-03-23T19:12:47;8.70;;;4.28;;
49153;SDS011;49455;52.252;9.124;2023-03-23T19:17:48;8.68;;;5.55;;
49153;SDS011;49455;52.252;9.124;2023-03-23T19:22:49;8.27;;;4.53;;
49153;SDS011;49455;52.252;9.124;2023-03-23T19:27:49;8.13;;;4.03;;
49153;SDS011;49455;52.252;9.124;2023-03-23T19:32:50;6.72;;;4.07;;
49153;SDS011;49455;52.252;9.124;2023-03-23T19:37:50;6.80;;;3.85;;
49153;SDS011;49455;52.252;9.124;2023-03-23T19:42:50;7.20;;;3.75;;
49153;SDS011;49455;52.252;9.124;2023-03-23T19:47:51;8.70;;;4.00;;
49153;SDS011;49455;52.252;9.124;2023-03-23T19:52:51;7.55;;;3.53;;
49153;SDS011;49455;52.252;9.124;2023-03-23T19:57:52;7.10;;;3.30;;
49153;SDS011;49455;52.252;9.124;2023-03-23T20:02:52;7.95;;;3.00;;
49153;SDS011;49455;52.252;9.124;2023-03-23T20:07:53;7.15;;;3.13;;
49153;SDS011;49455;52.252;9.124;2023-03-23T20:12:54;5.35;;;2.70;;
49153;SDS011;49455;52.252;9.124;2023-03-23T20:17:54;4.97;;;2.78;;
49153;SDS011;49455;52.252;9.124;2023-03-23T20:22:55;7.53;;;3.35;;
49153;SDS011;49455;52.252;9.124;2023-03-23T20:27:56;6.07;;;3.00;;
49153;SDS011;49455;52.252;9.124;2023-03-23T20:32:56;6.13;;;2.45;;
49153;SDS011;49455;52.252;9.124;2023-03-23T20:37:57;5.05;;;2.78;;
49153;SDS011;49455;52.252;9.124;2023-03-23T20:42:58;4.85;;;2.67;;
49153;SDS011;49455;52.252;9.124;2023-03-23T20:47:58;4.22;;;2.22;;
49153;SDS011;49455;52.252;9.124;2023-03-23T20:52:59;5.50;;;2.90;;
49153;SDS011;49455;52.252;9.124;2023-03-23T20:57:59;5.55;;;2.60;;
49153;SDS011;49455;52.252;9.124;2023-03-23T21:03:00;8.40;;;2.60;;
49153;SDS011;49455;52.252;9.124;2023-03-23T21:08:00;6.60;;;2.80;;
49153;SDS011;49455;52.252;9.124;2023-03-23T21:13:01;6.22;;;2.60;;
49153;SDS011;49455;52.252;9.124;2023-03-23T21:18:02;6.30;;;2.70;;
49153;SDS011;49455;52.252;9.124;2023-03-23T21:23:03;10.52;;;2.70;;
49153;SDS011;49455;52.252;9.124;2023-03-23T21:28:04;5.13;;;2.70;;
49153;SDS011;49455;52.252;9.124;2023-03-23T21:33:05;6.78;;;2.70;;
49153;SDS011;49455;52.252;9.124;2023-03-23T21:38:05;5.93;;;2.55;;
49153;SDS011;49455;52.252;9.124;2023-03-23T21:43:06;7.30;;;2.63;;
49153;SDS011;49455;52.252;9.124;2023-03-23T21:48:07;6.47;;;2.60;;
49153;SDS011;49455;52.252;9.124;2023-03-23T21:53:08;6.22;;;2.67;;
49153;SDS011;49455;52.252;9.124;2023-03-23T21:58:09;6.47;;;2.50;;
49153;SDS011;49455;52.252;9.124;2023-03-23T22:03:10;5.57;;;2.47;;
49153;SDS011;49455;52.252;9.124;2023-03-23T22:08:10;7.32;;;2.47;;
49153;SDS011;49455;52.252;9.124;2023-03-23T22:13:11;8.77;;;2.67;;
49153;SDS011;49455;52.252;9.124;2023-03-23T22:18:11;9.32;;;2.47;;
49153;SDS011;49455;52.252;9.124;2023-03-23T22:23:12;6.10;;;2.63;;
49153;SDS011;49455;52.252;9.124;2023-03-23T22:28:12;7.53;;;2.92;;
49153;SDS011;49455;52.252;9.124;2023-03-23T22:33:13;7.65;;;2.72;;
49153;SDS011;49455;52.252;9.124;2023-03-23T22:38:14;4.88;;;2.35;;
49153;SDS011;49455;52.252;9.124;2023-03-23T22:43:14;6.28;;;2.58;;
49153;SDS011;49455;52.252;9.124;2023-03-23T22:48:14;5.18;;;2.47;;
49153;SDS011;49455;52.252;9.124;2023-03-23T22:53:15;3.47;;;1.92;;
49153;SDS011;49455;52.252;9.124;2023-03-23T22:58:17;7.43;;;2.67;;
49153;SDS011;49455;52.252;9.124;2023-03-23T23:03:17;6.88;;;2.60;;
49153;SDS011;49455;52.252;9.124;2023-03-23T23:08:18;5.22;;;2.35;;
49153;SDS011;49455;52.252;9.124;2023-03-23T23:13:19;5.40;;;2.30;;
49153;SDS011;49455;52.252;9.124;2023-03-23T23:18:19;6.18;;;2.55;;
49153;SDS011;49455;52.252;9.124;2023-03-23T23:23:20;4.65;;;2.30;;
49153;SDS011;49455;52.252;9.124;2023-03-23T23:28:22;4.90;;;2.10;;
49153;SDS011;49455;52.252;9.124;2023-03-23T23:33:22;8.43;;;2.65;;
49153;SDS011;49455;52.252;9.124;2023-03-23T23:38:23;5.80;;;2.17;;
49153;SDS011;49455;52.252;9.124;2023-03-23T23:43:23;6.97;;;2.47;;
49153;SDS011;49455;52.252;9.124;2023-03-23T23:48:24;8.15;;;2.35;;
49153;SDS011;49455;52.252;9.124;2023-03-23T23:53:24;4.05;;;2.08;;
49153;SDS011;49455;52.252;9.124;2023-03-23T23:58:25;6.25;;;2.22;;
